Weather at Seattle Tacoma International Airport

Public forecast

Using degrees Fahrenheit for public forecast. Weather courtesy of forecast.io.

Current aviation weather report (METAR) for Seattle Tacoma International Airport

Retrieved 2020/10/31 00:53 UTC (31 minutes ago):

KSEA 310053Z 22008KT 10SM FEW035 SCT055 12/04 A3016 RMK AO2 SLP219 T01220044

Aviation forecast (TAF) for Seattle Tacoma International Airport

Retrieved 2020-10-31 00:24 UTC (60 minutes ago):

TAF KSEA 302321Z 3100/0106 20012KT P6SM SCT035 FM310500 16005KT P6SM SCT050 BKN200 FM311300 VRB03KT P6SM SCT004 FM311800 36003KT P6SM SCT004